sensor_id;sensor_type;location;lat;lon;timestamp;pressure;altitude;pressure_sealevel;temperature;humidity
21111;BME280;10713;51.912;4.494;2023-01-13T00:01:31;100285.97;;;10.35;100.00
21111;BME280;10713;51.912;4.494;2023-01-13T00:03:57;100286.44;;;10.24;100.00
21111;BME280;10713;51.912;4.494;2023-01-13T00:06:23;100282.50;;;10.34;100.00
21111;BME280;10713;51.912;4.494;2023-01-13T00:08:53;100285.06;;;10.36;100.00
21111;BME280;10713;51.912;4.494;2023-01-13T00:11:19;100278.00;;;10.36;100.00
21111;BME280;10713;51.912;4.494;2023-01-13T00:13:45;100286.06;;;10.33;100.00
21111;BME280;10713;51.912;4.494;2023-01-13T00:16:13;100271.75;;;10.39;100.00
21111;BME280;10713;51.912;4.494;2023-01-13T00:18:42;100272.44;;;10.43;100.00
21111;BME280;10713;51.912;4.494;2023-01-13T00:21:19;100272.13;;;10.49;100.00
21111;BME280;10713;51.912;4.494;2023-01-13T00:23:45;100267.06;;;10.63;100.00
21111;BME280;10713;51.912;4.494;2023-01-13T00:26:17;100255.34;;;10.69;100.00
21111;BME280;10713;51.912;4.494;2023-01-13T00:28:42;100254.03;;;10.77;100.00
21111;BME280;10713;51.912;4.494;2023-01-13T00:31:13;100268.56;;;10.86;100.00
21111;BME280;10713;51.912;4.494;2023-01-13T00:33:39;100270.81;;;10.76;100.00
21111;BME280;10713;51.912;4.494;2023-01-13T00:36:07;100265.38;;;10.79;100.00
21111;BME280;10713;51.912;4.494;2023-01-13T00:38:34;100262.50;;;10.84;100.00
21111;BME280;10713;51.912;4.494;2023-01-13T00:41:01;100264.59;;;10.77;100.00
21111;BME280;10713;51.912;4.494;2023-01-13T00:43:28;100263.97;;;10.72;100.00
21111;BME280;10713;51.912;4.494;2023-01-13T00:45:54;100263.91;;;10.74;100.00
21111;BME280;10713;51.912;4.494;2023-01-13T00:48:22;100256.13;;;10.71;100.00
21111;BME280;10713;51.912;4.494;2023-01-13T00:50:58;100256.03;;;10.72;100.00
21111;BME280;10713;51.912;4.494;2023-01-13T00:53:25;100257.13;;;10.68;100.00
21111;BME280;10713;51.912;4.494;2023-01-13T00:56:00;100245.56;;;10.71;100.00
21111;BME280;10713;51.912;4.494;2023-01-13T00:58:26;100239.28;;;10.73;100.00
21111;BME280;10713;51.912;4.494;2023-01-13T01:00:51;100239.03;;;10.78;100.00
21111;BME280;10713;51.912;4.494;2023-01-13T01:03:17;100236.25;;;10.81;100.00
21111;BME280;10713;51.912;4.494;2023-01-13T01:05:42;100245.00;;;10.64;100.00
21111;BME280;10713;51.912;4.494;2023-01-13T01:08:07;100247.06;;;10.40;100.00
21111;BME280;10713;51.912;4.494;2023-01-13T01:10:33;100262.31;;;10.33;100.00
21111;BME280;10713;51.912;4.494;2023-01-13T01:12:59;100267.94;;;10.26;100.00
21111;BME280;10713;51.912;4.494;2023-01-13T01:15:24;100256.81;;;10.19;100.00
21111;BME280;10713;51.912;4.494;2023-01-13T01:17:49;100248.91;;;10.19;100.00
21111;BME280;10713;51.912;4.494;2023-01-13T01:20:15;100241.91;;;10.18;100.00
21111;BME280;10713;51.912;4.494;2023-01-13T01:22:40;100242.69;;;10.20;100.00
21111;BME280;10713;51.912;4.494;2023-01-13T01:25:06;100239.91;;;10.23;100.00
21111;BME280;10713;51.912;4.494;2023-01-13T01:27:32;100249.97;;;10.15;100.00
21111;BME280;10713;51.912;4.494;2023-01-13T01:29:57;100231.34;;;10.18;100.00
21111;BME280;10713;51.912;4.494;2023-01-13T01:32:22;100245.63;;;10.14;100.00
21111;BME280;10713;51.912;4.494;2023-01-13T01:34:49;100241.00;;;10.19;100.00
21111;BME280;10713;51.912;4.494;2023-01-13T01:37:15;100232.72;;;10.08;100.00
21111;BME280;10713;51.912;4.494;2023-01-13T01:39:40;100239.75;;;10.26;100.00
21111;BME280;10713;51.912;4.494;2023-01-13T01:42:06;100233.38;;;10.32;100.00
21111;BME280;10713;51.912;4.494;2023-01-13T01:45:19;100220.88;;;10.35;100.00
21111;BME280;10713;51.912;4.494;2023-01-13T01:47:47;100234.00;;;10.37;100.00
21111;BME280;10713;51.912;4.494;2023-01-13T01:50:14;100227.09;;;10.34;100.00
21111;BME280;10713;51.912;4.494;2023-01-13T01:52:43;100229.53;;;10.39;100.00
21111;BME280;10713;51.912;4.494;2023-01-13T01:55:19;100246.19;;;10.40;100.00
21111;BME280;10713;51.912;4.494;2023-01-13T01:57:54;100232.22;;;10.37;100.00
21111;BME280;10713;51.912;4.494;2023-01-13T02:00:22;100240.94;;;10.40;100.00
21111;BME280;10713;51.912;4.494;2023-01-13T02:02:49;100232.06;;;10.41;100.00
21111;BME280;10713;51.912;4.494;2023-01-13T02:05:17;100230.06;;;10.46;100.00
21111;BME280;10713;51.912;4.494;2023-01-13T02:07:45;100230.63;;;10.52;100.00
21111;BME280;10713;51.912;4.494;2023-01-13T02:10:15;100225.19;;;10.55;100.00
21111;BME280;10713;51.912;4.494;2023-01-13T02:12:42;100214.47;;;10.58;100.00
21111;BME280;10713;51.912;4.494;2023-01-13T02:15:09;100225.13;;;10.57;100.00
21111;BME280;10713;51.912;4.494;2023-01-13T02:32:20;100217.91;;;10.60;100.00
21111;BME280;10713;51.912;4.494;2023-01-13T02:34:58;100199.28;;;10.64;100.00
21111;BME280;10713;51.912;4.494;2023-01-13T02:37:30;100198.53;;;10.62;100.00
21111;BME280;10713;51.912;4.494;2023-01-13T02:40:07;100204.88;;;10.57;100.00
21111;BME280;10713;51.912;4.494;2023-01-13T02:42:39;100202.84;;;10.63;100.00
21111;BME280;10713;51.912;4.494;2023-01-13T02:45:45;100200.88;;;10.49;100.00
21111;BME280;10713;51.912;4.494;2023-01-13T02:48:13;100207.03;;;10.49;100.00
21111;BME280;10713;51.912;4.494;2023-01-13T02:50:46;100213.59;;;10.41;100.00
21111;BME280;10713;51.912;4.494;2023-01-13T02:53:40;100217.88;;;10.43;100.00
21111;BME280;10713;51.912;4.494;2023-01-13T02:56:09;100218.88;;;10.41;100.00
21111;BME280;10713;51.912;4.494;2023-01-13T02:58:38;100224.59;;;10.50;100.00
21111;BME280;10713;51.912;4.494;2023-01-13T03:01:06;100212.34;;;10.30;100.00
21111;BME280;10713;51.912;4.494;2023-01-13T03:03:32;100224.66;;;10.30;100.00
21111;BME280;10713;51.912;4.494;2023-01-13T03:08:54;100211.06;;;10.39;100.00
21111;BME280;10713;51.912;4.494;2023-01-13T03:11:27;100217.16;;;10.21;100.00
21111;BME280;10713;51.912;4.494;2023-01-13T03:19:28;100232.09;;;10.22;100.00
21111;BME280;10713;51.912;4.494;2023-01-13T03:29:38;100231.19;;;10.21;100.00
21111;BME280;10713;51.912;4.494;2023-01-13T03:32:09;100216.25;;;10.22;100.00
21111;BME280;10713;51.912;4.494;2023-01-13T03:35:02;100209.25;;;10.21;100.00
21111;BME280;10713;51.912;4.494;2023-01-13T03:37:34;100206.28;;;10.28;100.00
21111;BME280;10713;51.912;4.494;2023-01-13T03:40:06;100217.38;;;10.35;100.00
21111;BME280;10713;51.912;4.494;2023-01-13T03:42:33;100223.50;;;10.35;100.00
21111;BME280;10713;51.912;4.494;2023-01-13T03:45:13;100213.06;;;10.34;100.00
21111;BME280;10713;51.912;4.494;2023-01-13T03:47:43;100223.09;;;10.26;100.00
21111;BME280;10713;51.912;4.494;2023-01-13T03:50:20;100218.75;;;10.25;100.00
21111;BME280;10713;51.912;4.494;2023-01-13T03:52:50;100217.31;;;10.18;100.00
21111;BME280;10713;51.912;4.494;2023-01-13T03:55:21;100207.75;;;10.15;100.00
21111;BME280;10713;51.912;4.494;2023-01-13T03:57:51;100228.50;;;10.23;100.00
21111;BME280;10713;51.912;4.494;2023-01-13T04:00:22;100211.25;;;10.34;100.00
21111;BME280;10713;51.912;4.494;2023-01-13T04:02:53;100208.00;;;10.29;100.00
21111;BME280;10713;51.912;4.494;2023-01-13T04:05:21;100201.13;;;10.25;100.00
21111;BME280;10713;51.912;4.494;2023-01-13T04:08:19;100210.75;;;10.26;100.00
21111;BME280;10713;51.912;4.494;2023-01-13T04:13:28;100209.88;;;10.27;100.00
21111;BME280;10713;51.912;4.494;2023-01-13T04:15:54;100221.28;;;10.26;100.00
21111;BME280;10713;51.912;4.494;2023-01-13T04:18:24;100226.06;;;10.18;100.00
21111;BME280;10713;51.912;4.494;2023-01-13T04:20:52;100225.56;;;10.10;100.00
21111;BME280;10713;51.912;4.494;2023-01-13T04:23:18;100238.16;;;10.05;100.00
21111;BME280;10713;51.912;4.494;2023-01-13T04:25:44;100238.84;;;10.08;100.00
21111;BME280;10713;51.912;4.494;2023-01-13T04:28:11;100239.50;;;10.13;100.00
21111;BME280;10713;51.912;4.494;2023-01-13T04:30:37;100240.06;;;10.20;100.00
21111;BME280;10713;51.912;4.494;2023-01-13T04:33:03;100237.47;;;10.19;100.00
21111;BME280;10713;51.912;4.494;2023-01-13T04:35:30;100239.91;;;10.23;100.00
21111;BME280;10713;51.912;4.494;2023-01-13T04:37:55;100230.75;;;10.13;100.00
21111;BME280;10713;51.912;4.494;2023-01-13T04:40:20;100238.78;;;10.29;100.00
21111;BME280;10713;51.912;4.494;2023-01-13T04:42:46;100229.78;;;10.33;100.00
21111;BME280;10713;51.912;4.494;2023-01-13T04:45:12;100232.91;;;10.41;100.00
21111;BME280;10713;51.912;4.494;2023-01-13T04:47:37;100234.72;;;10.41;100.00
21111;BME280;10713;51.912;4.494;2023-01-13T04:50:04;100241.78;;;10.40;100.00
21111;BME280;10713;51.912;4.494;2023-01-13T04:52:29;100241.97;;;10.35;100.00
21111;BME280;10713;51.912;4.494;2023-01-13T04:54:54;100244.25;;;10.24;100.00
21111;BME280;10713;51.912;4.494;2023-01-13T04:57:20;100256.47;;;10.27;100.00
21111;BME280;10713;51.912;4.494;2023-01-13T04:59:45;100243.28;;;10.27;100.00
21111;BME280;10713;51.912;4.494;2023-01-13T05:02:11;100245.84;;;10.28;100.00
21111;BME280;10713;51.912;4.494;2023-01-13T05:04:43;100245.00;;;10.28;100.00
21111;BME280;10713;51.912;4.494;2023-01-13T05:07:09;100252.94;;;10.26;100.00
21111;BME280;10713;51.912;4.494;2023-01-13T05:09:34;100248.66;;;10.24;100.00
21111;BME280;10713;51.912;4.494;2023-01-13T05:12:00;100241.53;;;10.27;100.00
21111;BME280;10713;51.912;4.494;2023-01-13T05:14:44;100237.78;;;10.31;100.00
21111;BME280;10713;51.912;4.494;2023-01-13T05:17:29;100242.06;;;10.34;100.00
21111;BME280;10713;51.912;4.494;2023-01-13T05:19:55;100240.28;;;10.34;100.00
21111;BME280;10713;51.912;4.494;2023-01-13T05:22:21;100231.81;;;10.28;100.00
21111;BME280;10713;51.912;4.494;2023-01-13T05:25:06;100239.91;;;10.23;100.00
21111;BME280;10713;51.912;4.494;2023-01-13T05:27:56;100239.91;;;10.23;100.00
21111;BME280;10713;51.912;4.494;2023-01-13T05:30:24;100246.81;;;10.26;100.00
21111;BME280;10713;51.912;4.494;2023-01-13T05:32:50;100255.31;;;10.32;100.00
21111;BME280;10713;51.912;4.494;2023-01-13T05:35:15;100252.09;;;10.26;100.00
21111;BME280;10713;51.912;4.494;2023-01-13T05:37:42;100252.06;;;10.27;100.00
21111;BME280;10713;51.912;4.494;2023-01-13T05:40:10;100251.44;;;10.21;100.00
21111;BME280;10713;51.912;4.494;2023-01-13T05:43:20;100257.88;;;10.15;100.00
21111;BME280;10713;51.912;4.494;2023-01-13T05:50:58;100261.22;;;10.00;100.00
21111;BME280;10713;51.912;4.494;2023-01-13T05:53:24;100259.31;;;10.03;100.00
21111;BME280;10713;51.912;4.494;2023-01-13T05:55:50;100266.34;;;10.03;100.00
21111;BME280;10713;51.912;4.494;2023-01-13T05:58:18;100274.13;;;10.06;100.00
21111;BME280;10713;51.912;4.494;2023-01-13T06:00:44;100270.22;;;10.14;100.00
21111;BME280;10713;51.912;4.494;2023-01-13T06:03:10;100265.22;;;10.08;100.00
21111;BME280;10713;51.912;4.494;2023-01-13T06:05:36;100257.97;;;10.13;100.00
21111;BME280;10713;51.912;4.494;2023-01-13T06:08:04;100259.44;;;10.19;100.00
21111;BME280;10713;51.912;4.494;2023-01-13T06:10:30;100254.88;;;10.23;100.00
21111;BME280;10713;51.912;4.494;2023-01-13T06:12:55;100254.78;;;10.24;100.00
21111;BME280;10713;51.912;4.494;2023-01-13T06:15:22;100255.75;;;10.42;100.00
21111;BME280;10713;51.912;4.494;2023-01-13T06:17:48;100256.25;;;10.50;100.00
21111;BME280;10713;51.912;4.494;2023-01-13T06:20:14;100247.69;;;10.45;100.00
21111;BME280;10713;51.912;4.494;2023-01-13T06:22:42;100257.16;;;10.49;100.00
21111;BME280;10713;51.912;4.494;2023-01-13T06:25:31;100248.88;;;10.57;100.00
21111;BME280;10713;51.912;4.494;2023-01-13T06:28:00;100251.88;;;10.49;100.00
21111;BME280;10713;51.912;4.494;2023-01-13T06:30:34;100252.31;;;10.59;100.00
21111;BME280;10713;51.912;4.494;2023-01-13T06:33:03;100263.94;;;10.55;100.00
21111;BME280;10713;51.912;4.494;2023-01-13T06:35:34;100254.53;;;10.49;100.00
21111;BME280;10713;51.912;4.494;2023-01-13T06:38:02;100258.25;;;10.45;100.00
21111;BME280;10713;51.912;4.494;2023-01-13T06:40:29;100251.25;;;10.44;100.00
21111;BME280;10713;51.912;4.494;2023-01-13T06:42:56;100266.38;;;10.41;100.00
21111;BME280;10713;51.912;4.494;2023-01-13T06:48:11;100264.22;;;10.30;100.00
21111;BME280;10713;51.912;4.494;2023-01-13T06:50:36;100269.50;;;10.30;100.00
21111;BME280;10713;51.912;4.494;2023-01-13T06:53:02;100272.16;;;10.30;100.00
21111;BME280;10713;51.912;4.494;2023-01-13T06:55:27;100274.78;;;10.30;100.00
21111;BME280;10713;51.912;4.494;2023-01-13T06:57:56;100268.66;;;10.29;100.00
21111;BME280;10713;51.912;4.494;2023-01-13T07:00:22;100264.22;;;10.30;100.00
21111;BME280;10713;51.912;4.494;2023-01-13T07:02:48;100254.78;;;10.24;100.00
21111;BME280;10713;51.912;4.494;2023-01-13T07:05:14;100263.50;;;10.26;100.00
21111;BME280;10713;51.912;4.494;2023-01-13T07:07:40;100273.94;;;10.29;100.00
21111;BME280;10713;51.912;4.494;2023-01-13T07:10:07;100261.84;;;10.24;100.00
21111;BME280;10713;51.912;4.494;2023-01-13T07:12:36;100266.72;;;10.14;100.00
21111;BME280;10713;51.912;4.494;2023-01-13T07:15:21;100254.03;;;10.22;100.00
21111;BME280;10713;51.912;4.494;2023-01-13T07:17:47;100260.22;;;10.21;100.00
21111;BME280;10713;51.912;4.494;2023-01-13T07:20:12;100276.19;;;10.18;100.00
21111;BME280;10713;51.912;4.494;2023-01-13T07:22:37;100274.34;;;10.20;100.00
21111;BME280;10713;51.912;4.494;2023-01-13T07:25:03;100270.56;;;10.26;100.00
21111;BME280;10713;51.912;4.494;2023-01-13T07:27:28;100279.47;;;10.23;100.00
21111;BME280;10713;51.912;4.494;2023-01-13T07:29:54;100272.41;;;10.24;100.00
21111;BME280;10713;51.912;4.494;2023-01-13T07:32:19;100284.69;;;10.25;100.00
21111;BME280;10713;51.912;4.494;2023-01-13T07:34:44;100283.25;;;10.18;100.00
21111;BME280;10713;51.912;4.494;2023-01-13T07:37:10;100283.94;;;10.21;100.00
21111;BME280;10713;51.912;4.494;2023-01-13T07:39:35;100272.56;;;10.21;100.00
21111;BME280;10713;51.912;4.494;2023-01-13T07:42:00;100276.97;;;10.20;100.00
21111;BME280;10713;51.912;4.494;2023-01-13T07:44:44;100287.53;;;10.20;100.00
21111;BME280;10713;51.912;4.494;2023-01-13T07:47:10;100282.31;;;10.19;100.00
21111;BME280;10713;51.912;4.494;2023-01-13T07:49:35;100283.03;;;10.22;100.00
21111;BME280;10713;51.912;4.494;2023-01-13T07:52:01;100290.75;;;10.27;100.00
21111;BME280;10713;51.912;4.494;2023-01-13T07:54:26;100305.59;;;10.29;100.00
21111;BME280;10713;51.912;4.494;2023-01-13T07:56:52;100295.97;;;10.28;100.00
21111;BME280;10713;51.912;4.494;2023-01-13T07:59:17;100306.25;;;10.34;100.00
21111;BME280;10713;51.912;4.494;2023-01-13T08:01:42;100299.75;;;10.42;100.00
21111;BME280;10713;51.912;4.494;2023-01-13T08:04:08;100310.16;;;10.45;100.00
21111;BME280;10713;51.912;4.494;2023-01-13T08:06:33;100299.53;;;10.46;100.00
21111;BME280;10713;51.912;4.494;2023-01-13T08:09:00;100318.44;;;10.37;100.00
21111;BME280;10713;51.912;4.494;2023-01-13T08:11:25;100304.44;;;10.35;100.00
21111;BME280;10713;51.912;4.494;2023-01-13T08:13:55;100309.88;;;10.51;100.00
21111;BME280;10713;51.912;4.494;2023-01-13T08:16:21;100307.38;;;10.48;100.00
21111;BME280;10713;51.912;4.494;2023-01-13T08:18:46;100325.78;;;10.49;100.00
21111;BME280;10713;51.912;4.494;2023-01-13T08:21:13;100325.41;;;10.57;100.00
21111;BME280;10713;51.912;4.494;2023-01-13T08:23:40;100331.53;;;10.57;100.00
21111;BME280;10713;51.912;4.494;2023-01-13T08:26:08;100332.19;;;10.63;100.00
21111;BME280;10713;51.912;4.494;2023-01-13T08:28:34;100337.47;;;10.63;100.00
21111;BME280;10713;51.912;4.494;2023-01-13T08:31:01;100328.84;;;10.59;100.00
21111;BME280;10713;51.912;4.494;2023-01-13T08:33:27;100345.59;;;10.58;100.00
21111;BME280;10713;51.912;4.494;2023-01-13T08:35:53;100337.13;;;10.51;100.00
21111;BME280;10713;51.912;4.494;2023-01-13T08:38:19;100349.31;;;10.54;100.00
21111;BME280;10713;51.912;4.494;2023-01-13T08:40:44;100349.38;;;10.52;100.00
21111;BME280;10713;51.912;4.494;2023-01-13T08:43:10;100354.75;;;10.51;100.00
21111;BME280;10713;51.912;4.494;2023-01-13T08:45:35;100367.34;;;10.44;100.00
21111;BME280;10713;51.912;4.494;2023-01-13T08:48:01;100357.34;;;10.32;100.00
21111;BME280;10713;51.912;4.494;2023-01-13T08:50:26;100357.66;;;10.24;100.00
21111;BME280;10713;51.912;4.494;2023-01-13T08:52:52;100375.50;;;10.19;100.00
21111;BME280;10713;51.912;4.494;2023-01-13T08:55:18;100378.06;;;10.21;100.00
21111;BME280;10713;51.912;4.494;2023-01-13T08:57:43;100380.94;;;10.16;100.00
21111;BME280;10713;51.912;4.494;2023-01-13T09:00:09;100387.75;;;10.20;100.00
21111;BME280;10713;51.912;4.494;2023-01-13T09:02:36;100391.88;;;10.27;100.00
21111;BME280;10713;51.912;4.494;2023-01-13T09:05:03;100388.75;;;10.18;100.00
21111;BME280;10713;51.912;4.494;2023-01-13T09:07:31;100389.69;;;10.17;100.00
21111;BME280;10713;51.912;4.494;2023-01-13T09:09:57;100393.19;;;10.17;100.00
21111;BME280;10713;51.912;4.494;2023-01-13T09:12:22;100397.16;;;10.27;100.00
21111;BME280;10713;51.912;4.494;2023-01-13T09:15:06;100386.78;;;10.23;100.00
21111;BME280;10713;51.912;4.494;2023-01-13T09:17:32;100398.03;;;10.26;100.00
21111;BME280;10713;51.912;4.494;2023-01-13T09:19:57;100389.28;;;10.26;100.00
21111;BME280;10713;51.912;4.494;2023-01-13T09:22:23;100400.09;;;10.20;100.00
21111;BME280;10713;51.912;4.494;2023-01-13T09:24:51;100399.44;;;10.14;100.00
21111;BME280;10713;51.912;4.494;2023-01-13T09:27:16;100397.94;;;10.29;100.00
21111;BME280;10713;51.912;4.494;2023-01-13T09:29:42;100399.09;;;10.22;100.00
21111;BME280;10713;51.912;4.494;2023-01-13T09:32:10;100407.28;;;10.36;100.00
21111;BME280;10713;51.912;4.494;2023-01-13T09:34:36;100406.56;;;10.33;100.00
21111;BME280;10713;51.912;4.494;2023-01-13T09:37:20;100401.03;;;10.39;100.00
21111;BME280;10713;51.912;4.494;2023-01-13T09:39:45;100423.84;;;10.40;100.00
21111;BME280;10713;51.912;4.494;2023-01-13T09:42:32;100425.56;;;10.60;100.00
21111;BME280;10713;51.912;4.494;2023-01-13T09:45:29;100419.56;;;10.56;100.00
21111;BME280;10713;51.912;4.494;2023-01-13T09:48:12;100433.53;;;10.58;100.00
21111;BME280;10713;51.912;4.494;2023-01-13T09:53:36;100434.78;;;10.70;100.00
21111;BME280;10713;51.912;4.494;2023-01-13T09:56:02;100433.00;;;10.71;100.00
21111;BME280;10713;51.912;4.494;2023-01-13T09:58:28;100451.25;;;10.75;100.00
21111;BME280;10713;51.912;4.494;2023-01-13T10:00:59;100443.13;;;10.80;100.00
21111;BME280;10713;51.912;4.494;2023-01-13T10:03:31;100465.19;;;10.79;100.00
21111;BME280;10713;51.912;4.494;2023-01-13T10:06:18;100458.69;;;10.86;100.00
21111;BME280;10713;51.912;4.494;2023-01-13T10:08:46;100467.72;;;10.80;100.00
21111;BME280;10713;51.912;4.494;2023-01-13T10:11:21;100461.81;;;10.75;100.00
21111;BME280;10713;51.912;4.494;2023-01-13T10:14:17;100485.03;;;10.88;100.00
21111;BME280;10713;51.912;4.494;2023-01-13T10:16:50;100489.72;;;11.00;100.00
21111;BME280;10713;51.912;4.494;2023-01-13T10:19:28;100472.88;;;11.02;100.00
21111;BME280;10713;51.912;4.494;2023-01-13T10:27:37;100475.59;;;11.20;100.00
21111;BME280;10713;51.912;4.494;2023-01-13T10:30:18;100472.59;;;11.09;100.00
21111;BME280;10713;51.912;4.494;2023-01-13T10:32:56;100490.13;;;11.28;100.00
21111;BME280;10713;51.912;4.494;2023-01-13T10:35:51;100490.19;;;11.46;100.00
21111;BME280;10713;51.912;4.494;2023-01-13T10:38:38;100494.47;;;11.48;100.00
21111;BME280;10713;51.912;4.494;2023-01-13T10:43:42;100513.31;;;11.41;100.00
21111;BME280;10713;51.912;4.494;2023-01-13T10:46:12;100507.34;;;11.37;100.00
21111;BME280;10713;51.912;4.494;2023-01-13T10:48:52;100502.84;;;11.39;100.00
21111;BME280;10713;51.912;4.494;2023-01-13T10:51:26;100504.53;;;11.40;100.00
21111;BME280;10713;51.912;4.494;2023-01-13T10:54:13;100512.97;;;11.48;100.00
21111;BME280;10713;51.912;4.494;2023-01-13T10:56:44;100510.38;;;11.47;100.00
21111;BME280;10713;51.912;4.494;2023-01-13T11:01:43;100523.53;;;11.48;100.00
21111;BME280;10713;51.912;4.494;2023-01-13T11:04:32;100525.19;;;11.51;100.00
21111;BME280;10713;51.912;4.494;2023-01-13T11:06:59;100541.94;;;11.50;100.00
21111;BME280;10713;51.912;4.494;2023-01-13T11:09:28;100527.97;;;11.48;100.00
21111;BME280;10713;51.912;4.494;2023-01-13T11:11:56;100536.56;;;11.34;100.00
21111;BME280;10713;51.912;4.494;2023-01-13T11:14:38;100524.84;;;11.40;100.00
21111;BME280;10713;51.912;4.494;2023-01-13T11:19:36;100539.16;;;11.53;100.00
21111;BME280;10713;51.912;4.494;2023-01-13T11:24:34;100533.38;;;11.64;100.00
21111;BME280;10713;51.912;4.494;2023-01-13T11:27:11;100540.13;;;11.69;100.00
21111;BME280;10713;51.912;4.494;2023-01-13T11:30:04;100537.00;;;11.61;100.00
21111;BME280;10713;51.912;4.494;2023-01-13T11:32:38;100544.34;;;11.56;100.00
21111;BME280;10713;51.912;4.494;2023-01-13T11:35:15;100558.84;;;11.47;100.00
21111;BME280;10713;51.912;4.494;2023-01-13T11:37:46;100551.13;;;11.43;100.00
21111;BME280;10713;51.912;4.494;2023-01-13T11:42:50;100562.50;;;11.45;100.00
21111;BME280;10713;51.912;4.494;2023-01-13T11:45:45;100561.75;;;11.41;100.00
21111;BME280;10713;51.912;4.494;2023-01-13T11:48:15;100574.81;;;11.44;100.00
21111;BME280;10713;51.912;4.494;2023-01-13T11:56:32;100575.19;;;11.37;100.00
21111;BME280;10713;51.912;4.494;2023-01-13T12:11:04;100586.81;;;11.70;100.00
21111;BME280;10713;51.912;4.494;2023-01-13T12:16:27;100598.31;;;11.69;100.00
21111;BME280;10713;51.912;4.494;2023-01-13T12:21:52;100610.38;;;11.75;100.00
21111;BME280;10713;51.912;4.494;2023-01-13T12:27:31;100623.56;;;11.77;100.00
21111;BME280;10713;51.912;4.494;2023-01-13T12:29:59;100627.34;;;11.71;100.00
21111;BME280;10713;51.912;4.494;2023-01-13T12:32:33;100628.03;;;11.56;100.00
21111;BME280;10713;51.912;4.494;2023-01-13T12:40:32;100646.19;;;11.63;100.00
21111;BME280;10713;51.912;4.494;2023-01-13T12:43:18;100652.72;;;11.56;100.00
21111;BME280;10713;51.912;4.494;2023-01-13T12:48:45;100650.41;;;11.67;100.00
21111;BME280;10713;51.912;4.494;2023-01-13T12:51:27;100646.16;;;11.65;100.00
21111;BME280;10713;51.912;4.494;2023-01-13T12:53:54;100658.28;;;11.69;100.00
21111;BME280;10713;51.912;4.494;2023-01-13T12:56:37;100664.22;;;11.74;100.00
21111;BME280;10713;51.912;4.494;2023-01-13T13:01:42;100671.50;;;11.69;100.00
21111;BME280;10713;51.912;4.494;2023-01-13T13:04:10;100677.00;;;11.64;100.00
21111;BME280;10713;51.912;4.494;2023-01-13T13:06:38;100682.78;;;11.72;100.00
21111;BME280;10713;51.912;4.494;2023-01-13T13:09:27;100687.00;;;11.77;100.00
21111;BME280;10713;51.912;4.494;2023-01-13T13:11:54;100696.75;;;11.76;100.00
21111;BME280;10713;51.912;4.494;2023-01-13T13:17:04;100675.78;;;11.71;100.00
21111;BME280;10713;51.912;4.494;2023-01-13T13:19:51;100697.38;;;11.62;100.00
21111;BME280;10713;51.912;4.494;2023-01-13T13:22:36;100688.50;;;11.63;100.00
21111;BME280;10713;51.912;4.494;2023-01-13T13:27:39;100698.72;;;11.71;100.00
21111;BME280;10713;51.912;4.494;2023-01-13T13:41:42;100720.31;;;11.81;100.00
21111;BME280;10713;51.912;4.494;2023-01-13T13:44:35;100725.09;;;11.72;100.00
21111;BME280;10713;51.912;4.494;2023-01-13T13:47:20;100732.88;;;11.76;100.00
21111;BME280;10713;51.912;4.494;2023-01-13T13:49:48;100736.19;;;11.81;100.00
21111;BME280;10713;51.912;4.494;2023-01-13T13:52:21;100730.88;;;11.81;100.00
21111;BME280;10713;51.912;4.494;2023-01-13T13:54:50;100740.38;;;11.86;100.00
21111;BME280;10713;51.912;4.494;2023-01-13T13:57:22;100751.00;;;11.85;100.00
21111;BME280;10713;51.912;4.494;2023-01-13T13:59:56;100752.84;;;11.83;100.00
21111;BME280;10713;51.912;4.494;2023-01-13T14:02:30;100776.66;;;11.83;100.00
21111;BME280;10713;51.912;4.494;2023-01-13T14:07:44;100778.34;;;11.84;100.00
21111;BME280;10713;51.912;4.494;2023-01-13T14:10:18;100772.63;;;11.74;100.00
21111;BME280;10713;51.912;4.494;2023-01-13T14:12:43;100798.47;;;11.67;100.00
21111;BME280;10713;51.912;4.494;2023-01-13T14:17:51;100813.28;;;11.71;100.00
21111;BME280;10713;51.912;4.494;2023-01-13T14:20:17;100803.38;;;11.77;100.00
21111;BME280;10713;51.912;4.494;2023-01-13T14:22:50;100794.50;;;11.78;100.00
21111;BME280;10713;51.912;4.494;2023-01-13T14:25:30;100806.03;;;11.77;100.00
21111;BME280;10713;51.912;4.494;2023-01-13T14:27:58;100802.28;;;11.81;100.00
21111;BME280;10713;51.912;4.494;2023-01-13T14:30:26;100815.09;;;11.71;100.00
21111;BME280;10713;51.912;4.494;2023-01-13T14:32:52;100819.91;;;11.61;100.00
21111;BME280;10713;51.912;4.494;2023-01-13T14:35:18;100805.63;;;11.65;100.00
21111;BME280;10713;51.912;4.494;2023-01-13T14:37:44;100822.75;;;11.57;100.00
21111;BME280;10713;51.912;4.494;2023-01-13T14:43:07;100805.19;;;11.35;100.00
21111;BME280;10713;51.912;4.494;2023-01-13T14:45:34;100836.13;;;11.33;100.00
21111;BME280;10713;51.912;4.494;2023-01-13T14:48:00;100834.38;;;11.32;100.00
21111;BME280;10713;51.912;4.494;2023-01-13T14:50:31;100852.41;;;11.22;100.00
21111;BME280;10713;51.912;4.494;2023-01-13T14:53:00;100851.47;;;11.23;100.00
21111;BME280;10713;51.912;4.494;2023-01-13T14:55:33;100851.69;;;11.19;100.00
21111;BME280;10713;51.912;4.494;2023-01-13T15:00:41;100859.13;;;11.09;100.00
21111;BME280;10713;51.912;4.494;2023-01-13T15:03:07;100860.19;;;11.05;100.00
21111;BME280;10713;51.912;4.494;2023-01-13T15:05:33;100864.63;;;11.04;100.00